Startpagina
METAR-TAF:

METAR-TAF

Vliegvelden :

Productieplatform

K13-a, Nederland

breedte: 53-13-04N, lengte: 3-13-13E, hoogte: 31 m

Actueel weer

Dit bericht is 32 minuten geleden gemaakt, om 05:25 UTC
Wind 10 kt uit het westnoordwesten, variërend tussen het westen en het noorden
Temperatuur 4°C
Vochtigheid 65%
Druk 1027 hPa

METAR: EHJR 070525Z AUTO 30010KT 280V350 //// // ///////// 04/M02 Q1027 RE// W///H12

Tijdstip: 06:57 (05:57 UTC)


TAF: ontbreekt

Waarnemingen en weersverwachtingen van meer dan 4000 vliegvelden (METAR en TAF).

De beschikbare stations zijn de gele en rode punten op de kaart.

Ga met uw muis naar het station om de naam te zien.

Klik dan om waarnemingen en weersverwachtingen te zien.

kaart wijzigen: klik op de groene knoppen met een zwart kruis om in te zoomen, op de groene knop met een streepje om uit te zoomen of op de groene pijlen voor aangrenzende kaarten.


METAR-TAF: